Time;durP1;ratioP1;P1;durP2;ratioP2;P2;SDS_P1;SDS_P2;PMS_P1;PMS_P2;Temp;Humidity;BMP_temperature;BMP_pressure;BME280_temperature;BME280_humidity;BME280_pressure;Samples;Min_cycle;Max_cycle;Signal;HPM_P1;HPM_P2
2023/04/25 00:03:20;;;;;;;19.00;15.10;;;;;;;14.82;68.20;97819.23;223791;181;136703;-72
2023/04/25 00:08:24;;;;;;;19.40;15.60;;;;;;;14.83;68.41;97818.27;221724;181;145818;-75
2023/04/25 00:13:29;;;;;;;19.30;16.50;;;;;;;14.85;68.46;97819.84;223613;181;138868;-71
2023/04/25 00:18:33;;;;;;;13.20;11.30;;;;;;;14.89;67.98;97815.15;223754;181;137028;-71
2023/04/25 00:23:36;;;;;;;6.10;5.00;;;;;;;14.88;66.67;97813.83;223713;181;145589;-71
2023/04/25 00:28:40;;;;;;;4.50;3.50;;;;;;;14.80;65.77;97816.39;223581;182;138697;-71
2023/04/25 00:33:43;;;;;;;4.00;2.60;;;;;;;14.70;65.23;97826.73;223854;182;136766;-72
2023/04/25 00:38:47;;;;;;;4.20;2.60;;;;;;;14.55;65.29;97827.11;223773;181;145784;-70
2023/04/25 00:43:51;;;;;;;2.20;2.00;;;;;;;14.47;65.41;97827.70;223769;181;138380;-71
2023/04/25 00:48:55;;;;;;;2.70;2.10;;;;;;;14.38;65.26;97830.52;223766;182;137239;-71
2023/04/25 00:53:59;;;;;;;1.50;1.30;;;;;;;14.26;65.26;97833.12;223769;179;145529;-71
2023/04/25 00:59:03;;;;;;;1.60;1.30;;;;;;;14.21;65.51;97829.55;223834;181;138884;-73
2023/04/25 01:04:06;;;;;;;1.70;1.20;;;;;;;14.21;65.57;97837.16;223843;181;136990;-73
2023/04/25 01:09:11;;;;;;;2.90;1.60;;;;;;;14.12;65.61;97836.79;223742;181;146856;-73
2023/04/25 01:14:14;;;;;;;2.10;1.30;;;;;;;14.10;65.66;97836.63;223661;181;139805;-72
2023/04/25 01:19:18;;;;;;;3.50;1.70;;;;;;;14.03;65.73;97844.11;223715;182;136761;-73
2023/04/25 01:37:07;;;;;;;2.00;1.30;;;;;;;13.68;66.27;97853.48;223839;181;137202;-72
2023/04/25 01:48:36;;;;;;;2.50;1.50;;;;;;;13.69;66.27;97852.46;223805;182;138337;-72
2023/04/25 01:53:39;;;;;;;2.20;1.50;;;;;;;13.71;66.12;97847.27;223662;182;137086;-72
2023/04/25 02:05:05;;;;;;;3.10;1.70;;;;;;;13.59;65.79;97859.26;223821;181;139209;-72
2023/04/25 02:10:11;;;;;;;3.10;1.50;;;;;;;13.57;65.81;97866.45;223802;181;137037;-73
2023/04/25 02:15:29;;;;;;;2.20;1.80;;;;;;;13.49;65.83;97868.56;223781;181;145021;-73
2023/04/25 02:20:38;;;;;;;2.80;1.70;;;;;;;13.43;65.82;97872.35;223663;181;138183;-74
2023/04/25 02:25:41;;;;;;;2.60;1.90;;;;;;;13.32;65.98;97870.00;223743;181;137212;-73
2023/04/25 02:30:45;;;;;;;2.30;1.70;;;;;;;13.29;66.00;97868.98;223767;181;145485;-72
2023/04/25 02:35:48;;;;;;;2.60;1.80;;;;;;;13.32;65.76;97872.61;223804;181;137684;-71
2023/04/25 02:40:52;;;;;;;4.10;1.90;;;;;;;13.36;65.56;97867.96;223820;181;137501;-71
2023/04/25 02:45:55;;;;;;;3.90;2.00;;;;;;;13.37;65.54;97866.68;223748;181;145068;-72
2023/04/25 02:50:58;;;;;;;23.20;17.60;;;;;;;13.34;65.53;97866.56;223710;181;138737;-71
2023/04/25 02:56:03;;;;;;;17.20;13.00;;;;;;;13.23;65.57;97869.00;223731;181;137035;-72
2023/04/25 03:01:07;;;;;;;16.80;13.30;;;;;;;13.14;65.79;97865.58;223701;181;145876;-72
2023/04/25 03:06:10;;;;;;;3.00;2.30;;;;;;;13.06;66.06;97863.41;223540;181;258024;-73
2023/04/25 03:11:13;;;;;;;5.60;2.30;;;;;;;12.99;66.11;97861.92;223623;182;137130;-71
2023/04/25 03:22:42;;;;;;;4.00;2.50;;;;;;;12.93;66.82;97865.11;223803;181;138979;-71
2023/04/25 03:27:45;;;;;;;4.00;2.40;;;;;;;12.99;67.08;97864.34;223718;181;136843;-73
2023/04/25 03:32:49;;;;;;;8.80;5.40;;;;;;;13.07;67.44;97865.46;223705;181;145245;-73
2023/04/25 03:37:52;;;;;;;4.90;2.30;;;;;;;13.19;67.39;97873.77;223666;182;138282;-72
2023/04/25 03:43:00;;;;;;;3.00;2.20;;;;;;;13.23;67.21;97880.41;223690;181;137176;-74
2023/04/25 03:48:04;;;;;;;2.60;2.10;;;;;;;13.22;67.18;97880.33;223718;181;144787;-73
2023/04/25 03:53:08;;;;;;;3.80;2.50;;;;;;;13.18;67.14;97881.75;223666;182;139739;-74
2023/04/25 03:58:32;;;;;;;47.90;39.70;;;;;;;13.10;67.08;97889.82;223637;181;137152;-72
2023/04/25 04:03:36;;;;;;;44.20;35.90;;;;;;;13.03;66.78;97893.59;223700;181;146241;-73
2023/04/25 04:08:40;;;;;;;5.90;3.20;;;;;;;13.00;66.83;97901.35;223584;182;138993;-73
2023/04/25 04:13:45;;;;;;;4.30;3.20;;;;;;;12.97;66.71;97909.30;223621;181;137674;-73
2023/04/25 04:18:48;;;;;;;5.60;3.80;;;;;;;12.96;66.91;97914.48;223632;182;145369;-73
2023/04/25 04:23:54;;;;;;;4.80;3.70;;;;;;;13.02;67.14;97926.30;223724;181;138677;-73
2023/04/25 04:28:59;;;;;;;4.40;3.60;;;;;;;12.98;67.07;97933.94;223610;181;140197;-72
2023/04/25 04:34:25;;;;;;;7.80;4.20;;;;;;;12.87;67.25;97935.08;223689;181;145769;-72
2023/04/25 04:39:29;;;;;;;;;;;;;;;12.71;67.52;97939.04;223685;181;138280;-71
2023/04/25 04:45:01;;;;;;;5.40;4.40;;;;;;;12.61;67.71;97944.59;223787;181;129766;-75
2023/04/25 04:50:35;;;;;;;5.20;3.90;;;;;;;12.53;67.48;97950.87;223672;182;145260;-74
2023/04/25 04:55:56;;;;;;;10.10;7.10;;;;;;;12.54;67.32;97952.41;223608;181;138708;-74
2023/04/25 05:01:05;;;;;;;4.90;4.30;;;;;;;12.55;66.95;97956.58;223695;182;137834;-74
2023/04/25 05:06:31;;;;;;;5.10;4.30;;;;;;;12.51;67.12;97957.63;223700;181;147790;-74
2023/04/25 05:11:51;;;;;;;9.10;4.50;;;;;;;12.48;67.14;97958.46;223504;181;139393;-74
2023/04/25 05:17:08;;;;;;;6.30;4.80;;;;;;;12.49;67.27;97962.62;223646;181;138799;-75
2023/04/25 05:22:31;;;;;;;9.80;6.70;;;;;;;12.42;67.08;97963.59;223606;181;147552;-74
2023/04/25 05:27:56;;;;;;;5.80;4.20;;;;;;;12.42;67.10;97963.84;223779;181;139165;-74
2023/04/25 05:33:23;;;;;;;6.30;3.60;;;;;;;12.32;66.44;97968.95;223751;181;136629;-74
2023/04/25 05:44:42;;;;;;;4.10;2.60;;;;;;;12.16;65.79;97987.58;223602;182;138364;-74
2023/04/25 05:50:07;;;;;;;5.20;2.50;;;;;;;12.17;65.70;97991.08;223550;182;138079;-75
2023/04/25 05:55:25;;;;;;;4.30;2.40;;;;;;;12.17;65.22;97999.41;223651;182;147588;-75
2023/04/25 06:00:29;;;;;;;3.40;2.20;;;;;;;12.14;64.66;98000.34;223555;182;138658;-73
2023/04/25 06:05:32;;;;;;;2.10;1.80;;;;;;;12.10;64.64;98004.77;218048;182;137535;-77
2023/04/25 06:10:36;;;;;;;2.80;1.90;;;;;;;11.99;64.78;98014.60;220250;182;147877;-76
2023/04/25 06:15:40;;;;;;;4.30;1.90;;;;;;;11.89;64.90;98020.63;223762;182;138237;-77
2023/04/25 06:20:45;;;;;;;3.00;2.20;;;;;;;11.83;64.93;98018.92;223746;182;136805;-77
2023/04/25 06:25:48;;;;;;;3.70;1.80;;;;;;;11.77;65.15;98026.00;223710;181;147633;-75
2023/04/25 06:30:51;;;;;;;2.40;1.80;;;;;;;11.66;65.50;98026.38;223621;182;141572;-76
2023/04/25 06:35:55;;;;;;;2.60;1.70;;;;;;;11.65;65.83;98029.19;223635;183;137501;-76
2023/04/25 06:41:02;;;;;;;2.10;1.40;;;;;;;11.67;65.31;98030.05;223722;183;148768;-76
2023/04/25 06:46:08;;;;;;;4.60;1.50;;;;;;;11.73;64.94;98034.52;223676;182;139440;-76
2023/04/25 06:51:16;;;;;;;4.00;1.50;;;;;;;11.78;64.66;98030.71;223693;183;137513;-74
2023/04/25 06:56:21;;;;;;;3.50;2.20;;;;;;;11.80;65.24;98031.99;223605;182;147082;-75
2023/04/25 07:01:42;;;;;;;4.10;2.20;;;;;;;11.80;65.97;98031.13;223624;182;138306;-74
2023/04/25 07:07:04;;;;;;;2.90;2.00;;;;;;;11.84;65.41;98033.45;223655;182;137345;-74
2023/04/25 07:12:16;;;;;;;2.90;2.00;;;;;;;11.85;64.75;98031.77;223651;182;147387;-74
2023/04/25 07:17:19;;;;;;;2.60;1.90;;;;;;;11.87;64.60;98033.73;223642;181;139450;-74
2023/04/25 07:22:23;;;;;;;1.90;1.70;;;;;;;11.97;64.28;98027.79;223779;181;137373;-74
2023/04/25 07:27:27;;;;;;;2.50;1.80;;;;;;;12.04;63.82;98031.63;223747;182;147118;-73
2023/04/25 07:32:36;;;;;;;3.70;2.30;;;;;;;12.05;63.63;98030.98;223623;181;140710;-73
2023/04/25 07:37:39;;;;;;;2.30;2.00;;;;;;;12.03;63.24;98035.22;223743;181;137428;-73
2023/04/25 07:42:48;;;;;;;2.40;1.50;;;;;;;12.11;63.33;98037.04;223651;182;147043;-75
2023/04/25 07:47:55;;;;;;;2.00;1.80;;;;;;;12.12;62.99;98039.96;223569;181;138542;-73
2023/04/25 07:52:59;;;;;;;113.00;68.70;;;;;;;12.17;62.63;98041.18;223543;182;137390;-74
2023/04/25 07:58:09;;;;;;;4.70;2.00;;;;;;;12.22;61.37;98039.84;223538;181;148018;-73
2023/04/25 08:03:21;;;;;;;5.20;2.00;;;;;;;12.42;60.92;98036.92;223626;182;138562;-73
2023/04/25 08:08:25;;;;;;;2.20;1.60;;;;;;;12.52;60.97;98031.92;223571;181;139592;-74
2023/04/25 08:13:29;;;;;;;2.80;2.20;;;;;;;12.60;61.16;98030.92;223697;181;147226;-74
2023/04/25 08:18:33;;;;;;;6.30;2.20;;;;;;;12.64;60.29;98031.28;223664;182;138416;-73
2023/04/25 08:23:38;;;;;;;2.80;2.00;;;;;;;12.60;59.08;98028.59;223692;182;137406;-74
2023/04/25 08:28:48;;;;;;;3.80;2.00;;;;;;;12.62;58.25;98033.64;223604;182;147065;-73
2023/04/25 08:33:52;;;;;;;4.40;2.00;;;;;;;12.65;58.16;98035.67;223629;182;138496;-74
2023/04/25 08:39:01;;;;;;;4.70;2.20;;;;;;;12.55;58.75;98035.79;223682;182;136823;-73
2023/04/25 08:44:07;;;;;;;3.30;2.30;;;;;;;12.47;58.59;98046.48;223673;182;147393;-73
2023/04/25 08:49:11;;;;;;;;;;;;;;;12.46;59.03;98048.13;223706;182;138336;-73
2023/04/25 08:54:15;;;;;;;4.80;3.50;;;;;;;12.45;60.13;98046.09;223818;181;131141;-73
2023/04/25 08:59:38;;;;;;;4.90;2.40;;;;;;;12.34;60.11;98050.03;223670;182;147108;-73
2023/04/25 09:04:43;;;;;;;4.00;2.30;;;;;;;12.22;59.75;98059.06;223704;182;138596;-73
2023/04/25 09:09:47;;;;;;;2.90;2.30;;;;;;;12.18;60.16;98063.14;223587;182;136799;-74
2023/04/25 09:15:06;;;;;;;2.60;2.40;;;;;;;12.19;60.26;98057.87;223709;181;147193;-73
2023/04/25 09:20:28;;;;;;;3.30;2.30;;;;;;;12.22;60.39;98060.52;223646;181;138533;-74
2023/04/25 09:37:59;;;;;;;4.10;2.10;;;;;;;12.42;59.09;98064.45;223669;182;138982;-74
2023/04/25 09:43:23;;;;;;;2.80;1.90;;;;;;;12.42;59.50;98064.09;223668;182;137142;-73
2023/04/25 09:48:28;;;;;;;3.40;2.10;;;;;;;12.45;58.44;98064.52;223752;182;146887;-74
2023/04/25 09:53:36;;;;;;;4.10;2.30;;;;;;;12.47;57.66;98064.01;223605;182;139325;-74
2023/04/25 09:58:50;;;;;;;3.20;2.10;;;;;;;12.50;58.15;98060.73;223626;181;136801;-74
2023/04/25 10:04:02;;;;;;;4.60;1.70;;;;;;;12.62;58.09;98058.20;223646;182;147681;-74
2023/04/25 10:09:33;;;;;;;4.20;2.00;;;;;;;12.64;57.37;98056.92;223683;182;139677;-73
2023/04/25 10:14:38;;;;;;;3.10;1.60;;;;;;;12.59;56.48;98060.02;223611;181;136756;-73
2023/04/25 10:19:42;;;;;;;2.70;1.70;;;;;;;12.64;54.90;98065.12;223704;182;160291;-72
2023/04/25 10:24:46;;;;;;;3.40;1.90;;;;;;;12.62;54.72;98066.52;223739;182;138870;-71
2023/04/25 10:36:18;;;;;;;2.50;1.90;;;;;;;12.73;55.14;98052.92;223723;181;148357;-71
2023/04/25 10:47:51;;;;;;;5.20;1.90;;;;;;;12.95;54.69;98047.39;223662;182;136965;-71
2023/04/25 10:52:55;;;;;;;2.60;2.00;;;;;;;12.98;55.26;98042.94;223605;181;147307;-71
2023/04/25 10:57:58;;;;;;;193.20;131.80;;;;;;;13.11;54.82;98041.38;223612;181;138889;-72
2023/04/25 11:03:02;;;;;;;4.80;2.90;;;;;;;13.31;55.43;98040.52;223754;182;138209;-71
2023/04/25 11:08:11;;;;;;;3.90;2.10;;;;;;;13.39;54.01;98038.39;223616;181;147066;-72
2023/04/25 11:13:14;;;;;;;2.00;1.60;;;;;;;13.40;53.42;98035.27;223570;181;138508;-71
2023/04/25 11:18:19;;;;;;;2.70;2.20;;;;;;;13.41;53.01;98031.27;223639;182;138983;-74
2023/04/25 11:23:22;;;;;;;3.10;2.00;;;;;;;13.39;53.25;98030.58;223661;182;148157;-73
2023/04/25 11:28:26;;;;;;;5.40;2.00;;;;;;;13.39;53.36;98029.45;223644;182;138383;-72
2023/04/25 11:33:30;;;;;;;2.80;2.20;;;;;;;13.43;54.14;98030.38;223675;181;138168;-71
2023/04/25 11:38:34;;;;;;;29.30;26.40;;;;;;;13.50;52.63;98028.67;223692;182;147178;-71
2023/04/25 11:43:37;;;;;;;5.20;3.30;;;;;;;13.53;52.94;98033.77;223682;182;138899;-70
2023/04/25 11:48:43;;;;;;;4.50;2.60;;;;;;;13.58;52.69;98030.10;223621;182;136862;-71
2023/04/25 11:53:46;;;;;;;2.50;2.00;;;;;;;13.54;52.62;98029.23;223725;182;147277;-71
2023/04/25 11:58:58;;;;;;;2.60;2.00;;;;;;;13.52;52.35;98030.15;223707;181;138403;-71
2023/04/25 12:04:18;;;;;;;4.10;2.50;;;;;;;13.43;52.36;98031.05;223744;182;136786;-71
2023/04/25 12:09:33;;;;;;;5.00;2.50;;;;;;;13.37;52.56;98032.91;223527;182;147297;-71
2023/04/25 12:14:36;;;;;;;5.90;2.60;;;;;;;13.30;53.99;98028.69;223679;182;138981;-71
2023/04/25 12:19:40;;;;;;;2.90;2.40;;;;;;;13.23;55.28;98027.02;223716;182;136674;-71
2023/04/25 12:24:45;;;;;;;5.10;2.80;;;;;;;13.13;56.57;98027.35;223819;182;146930;-71
2023/04/25 12:29:53;;;;;;;10.00;6.70;;;;;;;13.08;56.79;98028.17;223682;182;139802;-72
2023/04/25 12:34:56;;;;;;;14.20;9.40;;;;;;;13.09;56.87;98030.04;223705;182;136719;-70
2023/04/25 12:39:59;;;;;;;6.60;3.10;;;;;;;13.12;57.08;98029.40;223784;182;146431;-72
2023/04/25 12:45:03;;;;;;;5.10;3.20;;;;;;;13.08;56.85;98037.98;223673;182;138073;-72
2023/04/25 12:50:08;;;;;;;3.80;1.90;;;;;;;13.12;55.25;98032.98;223775;182;137274;-72
2023/04/25 12:55:12;;;;;;;3.30;2.00;;;;;;;13.03;52.71;98036.40;223736;182;148830;-72
2023/04/25 13:00:17;;;;;;;4.50;2.30;;;;;;;12.90;54.22;98041.10;223641;182;139782;-72
2023/04/25 13:05:21;;;;;;;3.70;2.20;;;;;;;12.79;54.02;98040.96;223653;182;137260;-74
2023/04/25 13:10:25;;;;;;;5.40;2.10;;;;;;;12.72;54.30;98032.32;223567;181;147122;-74
2023/04/25 13:15:29;;;;;;;198.80;133.10;;;;;;;12.65;54.64;98036.16;223474;183;138927;-74
2023/04/25 13:20:33;;;;;;;49.70;32.20;;;;;;;12.64;55.14;98043.98;223715;182;138067;-73
2023/04/25 13:25:36;;;;;;;4.20;2.80;;;;;;;12.65;54.43;98032.45;223641;182;147499;-74
2023/04/25 13:30:40;;;;;;;6.30;2.50;;;;;;;12.65;54.56;98030.66;223621;181;138401;-72
2023/04/25 13:35:46;;;;;;;2.30;1.60;;;;;;;12.71;55.03;98027.13;223755;182;137034;-73
2023/04/25 13:40:52;;;;;;;5.80;2.20;;;;;;;12.76;54.32;98027.35;223634;181;147550;-75
2023/04/25 13:45:56;;;;;;;47.60;30.80;;;;;;;12.83;54.19;98030.00;223596;182;138926;-74
2023/04/25 13:50:59;;;;;;;6.50;3.30;;;;;;;12.89;53.97;98032.49;223608;182;259437;-74
2023/04/25 13:56:03;;;;;;;3.50;2.20;;;;;;;12.90;53.84;98034.70;223702;182;147241;-75
2023/04/25 14:01:08;;;;;;;3.80;2.40;;;;;;;12.96;54.51;98032.70;223605;182;138831;-75
2023/04/25 14:06:12;;;;;;;3.30;1.70;;;;;;;13.12;54.94;98032.09;223631;182;137373;-75
2023/04/25 14:11:21;;;;;;;4.20;2.30;;;;;;;13.24;54.21;98034.20;223630;182;147256;-74
2023/04/25 14:16:39;;;;;;;5.40;2.60;;;;;;;13.31;55.33;98036.64;223626;182;138452;-72
2023/04/25 14:21:43;;;;;;;5.00;2.90;;;;;;;13.31;55.37;98038.04;223651;182;137012;-76
2023/04/25 14:26:47;;;;;;;4.40;3.00;;;;;;;13.27;55.57;98039.33;223601;181;147677;-74
2023/04/25 14:31:50;;;;;;;4.10;2.20;;;;;;;13.23;55.86;98046.35;223784;181;138632;-74
2023/04/25 14:36:54;;;;;;;3.50;2.20;;;;;;;13.22;55.89;98045.02;223643;182;136484;-74
2023/04/25 14:41:58;;;;;;;4.90;2.20;;;;;;;13.22;55.63;98043.41;223465;216;148813;-74
2023/04/25 14:47:01;;;;;;;3.00;2.20;;;;;;;13.20;54.83;98049.53;223376;183;142035;-73
2023/04/25 14:52:05;;;;;;;19.50;13.00;;;;;;;13.27;52.68;98050.14;223247;181;137464;-75
2023/04/25 14:57:09;;;;;;;4.90;1.80;;;;;;;13.38;49.57;98048.98;223658;182;148010;-72
2023/04/25 15:02:12;;;;;;;3.20;1.80;;;;;;;13.38;48.45;98046.12;223562;182;139147;-74
2023/04/25 15:07:16;;;;;;;5.10;2.20;;;;;;;13.36;47.87;98048.09;223639;182;137398;-70
2023/04/25 15:12:20;;;;;;;4.90;2.10;;;;;;;13.35;47.88;98052.62;223467;181;147564;-70
2023/04/25 15:17:24;;;;;;;4.80;1.90;;;;;;;13.29;47.06;98057.63;223577;182;138575;-70
2023/04/25 15:22:28;;;;;;;4.70;2.00;;;;;;;13.24;47.03;98056.98;223633;182;137196;-69
2023/04/25 15:27:31;;;;;;;7.90;2.80;;;;;;;13.22;46.81;98057.70;223768;182;148112;-69
2023/04/25 15:32:38;;;;;;;3.30;1.90;;;;;;;13.21;47.05;98058.16;223672;182;140194;-69
2023/04/25 15:37:48;;;;;;;3.50;1.90;;;;;;;13.20;47.59;98059.96;223691;182;136932;-69
2023/04/25 15:42:52;;;;;;;6.40;2.20;;;;;;;13.20;47.90;98061.84;223653;182;147365;-69
2023/04/25 15:47:56;;;;;;;4.60;2.40;;;;;;;13.22;48.57;98065.38;223615;182;138091;-69
2023/04/25 15:53:00;;;;;;;6.40;3.70;;;;;;;13.26;48.92;98058.06;223636;182;137167;-68
2023/04/25 15:58:04;;;;;;;4.60;2.80;;;;;;;13.31;49.47;98056.90;223681;182;147726;-69
2023/04/25 16:03:08;;;;;;;4.00;2.60;;;;;;;13.34;49.78;98053.69;223697;182;138855;-69
2023/04/25 16:08:11;;;;;;;5.90;2.70;;;;;;;13.41;49.06;98046.07;223755;182;137397;-69
2023/04/25 16:13:15;;;;;;;16.20;11.80;;;;;;;13.47;48.55;98048.16;223672;182;147538;-68
2023/04/25 16:18:20;;;;;;;13.00;5.10;;;;;;;13.57;48.98;98049.98;223595;182;139198;-67
2023/04/25 16:23:25;;;;;;;5.00;2.80;;;;;;;13.76;48.34;98051.11;223397;184;137108;-69
2023/04/25 16:28:28;;;;;;;6.00;2.50;;;;;;;13.72;47.73;98050.23;223414;184;148924;-70
2023/04/25 16:33:33;;;;;;;6.50;2.80;;;;;;;13.70;47.40;98052.36;223442;184;139315;-70
2023/04/25 16:38:38;;;;;;;7.00;2.80;;;;;;;13.68;47.11;98057.13;223575;184;136615;-72
2023/04/25 16:43:42;;;;;;;8.00;4.10;;;;;;;13.68;46.75;98058.03;223521;184;147540;-72
2023/04/25 16:48:47;;;;;;;8.70;3.20;;;;;;;13.65;46.89;98058.55;223307;184;139824;-70
2023/04/25 16:53:50;;;;;;;6.80;2.70;;;;;;;13.63;46.82;98066.50;223456;184;136720;-71
2023/04/25 16:58:54;;;;;;;6.70;2.90;;;;;;;13.62;46.49;98074.48;223428;184;148006;-70
2023/04/25 17:03:58;;;;;;;7.30;3.70;;;;;;;13.59;46.55;98080.98;223529;184;138995;-70
2023/04/25 17:09:02;;;;;;;6.50;3.00;;;;;;;13.51;46.55;98089.70;223481;184;137251;-70
2023/04/25 17:14:06;;;;;;;125.30;94.70;;;;;;;13.48;46.75;98088.37;223524;184;148298;-68
2023/04/25 17:19:09;;;;;;;13.70;6.00;;;;;;;13.58;47.35;98090.40;223405;183;139232;-70
2023/04/25 17:24:14;;;;;;;7.80;3.30;;;;;;;13.57;47.10;98088.48;223489;183;137373;-71
2023/04/25 17:29:18;;;;;;;7.80;3.60;;;;;;;13.52;46.83;98088.75;223473;183;147311;-70
2023/04/25 17:34:21;;;;;;;6.10;3.70;;;;;;;13.44;46.89;98090.47;223321;184;138817;-70
2023/04/25 17:39:25;;;;;;;90.80;64.00;;;;;;;13.37;47.38;98095.73;223447;184;136706;-70
2023/04/25 17:44:36;;;;;;;10.40;6.10;;;;;;;13.37;47.18;98103.29;223502;184;146949;-70
2023/04/25 17:49:40;;;;;;;7.20;3.80;;;;;;;13.27;47.04;98108.75;223415;184;139168;-71
2023/04/25 17:54:43;;;;;;;8.80;3.60;;;;;;;13.16;47.06;98112.92;223533;184;136739;-71
2023/04/25 17:59:56;;;;;;;12.20;4.60;;;;;;;13.07;47.15;98120.31;223477;184;147114;-70
2023/04/25 18:05:00;;;;;;;8.10;3.70;;;;;;;12.99;47.15;98131.15;223394;184;139223;-71
2023/04/25 18:10:05;;;;;;;7.80;3.90;;;;;;;12.89;47.66;98133.02;223396;184;137203;-71
2023/04/25 18:15:09;;;;;;;8.80;4.90;;;;;;;12.77;47.74;98138.69;223364;183;147480;-71
2023/04/25 18:20:16;;;;;;;7.90;4.40;;;;;;;12.69;47.90;98141.02;223428;184;141931;-70
2023/04/25 18:25:19;;;;;;;12.00;5.20;;;;;;;12.61;48.27;98141.52;223499;184;137460;-70
2023/04/25 18:30:23;;;;;;;118.70;86.60;;;;;;;12.54;48.82;98153.86;223503;184;147417;-69
2023/04/25 18:35:27;;;;;;;17.70;9.50;;;;;;;12.71;50.63;98163.92;223345;184;138797;-71
2023/04/25 18:40:31;;;;;;;11.70;5.30;;;;;;;12.70;49.31;98164.93;223391;185;137158;-71
2023/04/25 18:45:34;;;;;;;9.40;4.70;;;;;;;12.52;49.73;98176.41;223352;183;147968;-71
2023/04/25 18:50:37;;;;;;;11.20;5.10;;;;;;;12.41;49.75;98180.70;223456;184;138735;-74
2023/04/25 18:55:41;;;;;;;10.90;5.20;;;;;;;12.32;49.83;98187.19;223429;183;137130;-70
2023/04/25 19:00:45;;;;;;;11.70;6.00;;;;;;;12.25;49.50;98193.23;223488;183;147052;-71
2023/04/25 19:05:49;;;;;;;16.70;6.40;;;;;;;12.20;49.51;98199.02;223568;184;138148;-71
2023/04/25 19:10:53;;;;;;;13.20;6.30;;;;;;;12.13;50.20;98205.49;223485;184;136996;-72
2023/04/25 19:15:57;;;;;;;15.40;5.90;;;;;;;12.05;50.48;98208.78;223412;184;147220;-69
2023/04/25 19:21:02;;;;;;;11.30;5.60;;;;;;;12.02;50.32;98210.08;223338;184;140775;-77
2023/04/25 19:26:06;;;;;;;130.20;87.90;;;;;;;12.04;51.34;98213.13;223431;184;137138;-70
2023/04/25 19:31:10;;;;;;;15.70;7.20;;;;;;;12.29;51.62;98208.38;223480;184;147149;-72
2023/04/25 19:36:14;;;;;;;10.80;6.30;;;;;;;12.45;49.84;98205.48;223262;184;138751;-69
2023/04/25 19:41:17;;;;;;;10.30;5.90;;;;;;;12.37;49.61;98225.02;223469;183;137040;-69
2023/04/25 19:46:20;;;;;;;10.50;5.90;;;;;;;12.33;49.16;98225.33;223454;183;147479;-68
2023/04/25 19:51:26;;;;;;;13.70;8.60;;;;;;;12.28;49.04;98232.83;223559;183;138169;-69
2023/04/25 19:56:29;;;;;;;11.80;7.10;;;;;;;12.20;49.25;98231.73;223605;184;137474;-69
2023/04/25 20:01:32;;;;;;;12.80;6.80;;;;;;;12.12;49.43;98232.44;223467;183;147768;-69
2023/04/25 20:06:36;;;;;;;12.60;6.60;;;;;;;12.02;49.36;98238.31;223485;184;138588;-69
2023/04/25 20:11:40;;;;;;;10.80;6.30;;;;;;;11.97;49.24;98242.09;223502;184;136957;-69
2023/04/25 20:16:43;;;;;;;11.90;5.80;;;;;;;11.87;49.42;98236.02;223589;184;147879;-69
2023/04/25 20:21:47;;;;;;;11.30;5.80;;;;;;;11.75;49.69;98234.08;223503;184;139315;-69
2023/04/25 20:26:51;;;;;;;13.40;6.90;;;;;;;11.67;49.86;98235.79;223622;184;137485;-68
2023/04/25 20:31:54;;;;;;;10.10;5.50;;;;;;;11.62;50.00;98240.97;223518;184;147300;-67
2023/04/25 20:36:58;;;;;;;10.20;4.70;;;;;;;11.59;49.94;98249.16;223524;184;139358;-67
2023/04/25 20:42:01;;;;;;;10.40;6.10;;;;;;;11.60;49.97;98257.09;223682;183;137243;-70
2023/04/25 20:47:08;;;;;;;12.80;5.80;;;;;;;11.55;50.30;98255.05;223565;183;146704;-70
2023/04/25 20:52:12;;;;;;;8.70;5.00;;;;;;;11.47;50.49;98252.65;223565;184;141057;-70
2023/04/25 20:57:16;;;;;;;11.30;6.20;;;;;;;11.45;50.59;98258.67;223648;183;136813;-70
2023/04/25 21:02:20;;;;;;;12.20;6.40;;;;;;;11.44;50.78;98267.61;223532;184;147478;-70
2023/04/25 21:07:23;;;;;;;10.40;6.00;;;;;;;11.37;50.94;98266.98;223578;184;138724;-70
2023/04/25 21:12:27;;;;;;;13.20;6.90;;;;;;;11.25;51.19;98270.34;223570;183;136970;-71
2023/04/25 21:17:30;;;;;;;15.20;7.10;;;;;;;11.16;51.55;98269.27;223691;184;147420;-71
2023/04/25 21:22:34;;;;;;;14.20;7.50;;;;;;;11.13;51.75;98274.39;223656;184;138419;-68
2023/04/25 21:27:37;;;;;;;15.00;7.30;;;;;;;11.13;51.57;98278.34;223567;183;136994;-68
2023/04/25 21:32:43;;;;;;;16.30;9.20;;;;;;;11.10;51.85;98285.14;223573;184;148081;-68
2023/04/25 21:37:47;;;;;;;17.70;10.20;;;;;;;11.05;52.02;98292.23;223585;184;138309;-68
2023/04/25 21:42:52;;;;;;;18.10;10.20;;;;;;;11.02;52.30;98299.81;223546;183;137716;-70
2023/04/25 21:47:55;;;;;;;19.10;9.50;;;;;;;10.94;52.51;98307.86;223510;183;147227;-70
2023/04/25 21:53:10;;;;;;;17.20;10.10;;;;;;;10.85;52.59;98310.98;222076;184;141244;-72
2023/04/25 21:58:13;;;;;;;18.50;10.00;;;;;;;10.80;52.70;98308.52;223572;184;137626;-71
2023/04/25 22:03:18;;;;;;;15.00;8.80;;;;;;;10.78;52.82;98307.59;223489;183;147454;-72
2023/04/25 22:08:22;;;;;;;;;;;;;;;10.76;52.94;98313.27;223530;184;138444;-71
2023/04/25 22:13:27;;;;;;;19.80;9.70;;;;;;;10.79;53.12;98313.56;223606;184;130802;-70
2023/04/25 22:18:35;;;;;;;14.90;8.30;;;;;;;10.79;53.20;98322.83;223471;184;146978;-70
2023/04/25 22:23:38;;;;;;;17.30;8.70;;;;;;;10.79;53.47;98323.33;223532;183;139446;-69
2023/04/25 22:28:42;;;;;;;17.00;8.60;;;;;;;10.83;53.58;98329.76;223595;183;137276;-69
2023/04/25 22:33:46;;;;;;;17.50;9.20;;;;;;;10.82;53.68;98329.67;223499;184;147766;-69
2023/04/25 22:38:51;;;;;;;14.40;7.20;;;;;;;10.81;54.01;98331.35;223447;183;139394;-69
2023/04/25 22:43:55;;;;;;;;;;;;;;;10.77;54.22;98341.94;223497;184;137600;-70
2023/04/25 22:49:01;;;;;;;13.40;7.60;;;;;;;10.72;54.56;98341.96;223503;183;147631;-70
2023/04/25 22:54:05;;;;;;;14.10;7.80;;;;;;;10.74;54.66;98343.65;223479;183;139102;-69
2023/04/25 22:59:10;;;;;;;14.50;6.60;;;;;;;10.72;54.79;98342.50;223486;184;136896;-70
2023/04/25 23:04:15;;;;;;;13.60;6.40;;;;;;;10.71;54.90;98342.08;223471;184;147315;-69
2023/04/25 23:09:19;;;;;;;13.00;6.30;;;;;;;10.67;55.10;98348.35;223422;183;140463;-70
2023/04/25 23:14:23;;;;;;;11.30;6.10;;;;;;;10.63;55.36;98350.97;223643;184;138167;-69
2023/04/25 23:19:27;;;;;;;10.60;6.00;;;;;;;10.60;55.53;98342.65;223573;184;148538;-70
2023/04/25 23:24:31;;;;;;;14.60;6.30;;;;;;;10.58;55.71;98346.39;223600;184;139886;-69
2023/04/25 23:29:35;;;;;;;8.90;5.00;;;;;;;10.61;55.80;98355.72;223529;184;137073;-70
2023/04/25 23:34:39;;;;;;;11.00;5.40;;;;;;;10.62;55.95;98355.11;223532;184;147123;-69
2023/04/25 23:39:51;;;;;;;12.90;6.20;;;;;;;10.61;56.02;98356.44;223510;184;138951;-70
2023/04/25 23:44:55;;;;;;;11.70;5.30;;;;;;;10.59;56.19;98359.27;223425;184;137029;-69
2023/04/25 23:49:58;;;;;;;8.20;4.10;;;;;;;10.55;56.27;98359.15;223514;183;146887;-69
2023/04/25 23:55:04;;;;;;;7.10;3.80;;;;;;;10.53;56.38;98356.84;223411;184;138283;-69
